PWSweather.com
Personal Weather Stations
Station Observations
IPODRAVI2
Croatia, Trnovec BartoloveckiHR

CroatiaTrnovec BartoloveckiHR

Lat: 46.2947, Lon: 16.3989

Elevation: 535

Station Type: Davis Vantage Pro2 plus

http://www.pljusak.com/trnovec1/wx.html

High Low Average
Temperature 45.7°F7.6°F 29.5°F-1.4°F 35.1°F1.7°F
Dew Point 40.3°F4.6°F 28.5°F-1.9°F 33.2°F0.7°F
Winds 8.1 mph SW13.0 mph SW Calm Calm 0.9 mph 1.4 mph
Wind Gusts 12.7 mph20.4 mph -- 1.7 mph2.7 mph
Humidity 98% 77% 93%
Pressure 30.05 in1017.60 in 29.89 in1012.20 in -
Precipitation 0.02 in0.50 in - -
Hour Temp Dew Point Humidity Winds Wind Gusts Pressure Precip Precip Rate Daily Precip Total
12:00 AM 31.6°F-0.2°C 30.6°F-0.8°C 96% Calm Calm -- 30.04 in1017.3 mb - 0.00 in0.0 mm 0.00 in0.0 mm
12:10 AM 31.5°F-0.3°C 30.5°F-0.8°C 96% Calm Calm -- 30.04 in1017.3 mb - 0.00 in0.0 mm 0.00 in0.0 mm
12:15 AM 31.4°F-0.3°C 30.4°F-0.9°C 96% Calm Calm -- 30.04 in1017.3 mb - 0.00 in0.0 mm 0.00 in0.0 mm
12:25 AM 31.1°F-0.5°C 30.1°F-1.1°C 96% Calm Calm -- 30.04 in1017.3 mb - 0.00 in0.0 mm 0.00 in0.0 mm
12:30 AM 31.0°F-0.6°C 30.0°F-1.1°C 96% Calm Calm -- 30.03 in1016.9 mb - 0.00 in0.0 mm 0.00 in0.0 mm
12:35 AM 31.0°F-0.6°C 30.0°F-1.1°C 96% Calm Calm -- 30.03 in1016.9 mb - 0.00 in0.0 mm 0.00 in0.0 mm
12:40 AM 31.0°F-0.6°C 30.0°F-1.1°C 96% Calm Calm -- 30.03 in1016.9 mb - 0.00 in0.0 mm 0.00 in0.0 mm
12:45 AM 31.1°F-0.5°C 30.1°F-1.1°C 96% Calm Calm -- 30.02 in1016.6 mb - 0.00 in0.0 mm 0.00 in0.0 mm
12:50 AM 31.2°F-0.4°C 30.2°F-1.0°C 96% Calm Calm -- 30.02 in1016.6 mb - 0.00 in0.0 mm 0.00 in0.0 mm
12:55 AM 31.2°F-0.4°C 30.2°F-1.0°C 96% Calm Calm -- 30.02 in1016.6 mb - 0.00 in0.0 mm 0.00 in0.0 mm
01:00 AM 31.2°F-0.4°C 30.2°F-1.0°C 96% Calm Calm -- 30.02 in1016.6 mb - 0.00 in0.0 mm 0.00 in0.0 mm
01:10 AM 31.2°F-0.4°C 30.2°F-1.0°C 96% Calm Calm -- 30.02 in1016.6 mb - 0.00 in0.0 mm 0.00 in0.0 mm
01:15 AM 31.1°F-0.5°C 30.1°F-1.1°C 96% Calm Calm -- 30.02 in1016.6 mb - 0.00 in0.0 mm 0.00 in0.0 mm
01:20 AM 31.1°F-0.5°C 30.1°F-1.1°C 96% Calm Calm -- 30.02 in1016.6 mb - 0.00 in0.0 mm 0.00 in0.0 mm
01:25 AM 31.0°F-0.6°C 30.0°F-1.1°C 96% Calm Calm -- 30.01 in1016.3 mb - 0.00 in0.0 mm 0.00 in0.0 mm
01:30 AM 31.0°F-0.6°C 30.0°F-1.1°C 96% Calm Calm -- 30.02 in1016.6 mb - 0.00 in0.0 mm 0.00 in0.0 mm
01:35 AM 30.9°F-0.6°C 29.9°F-1.2°C 96% Calm Calm -- 30.02 in1016.6 mb - 0.00 in0.0 mm 0.00 in0.0 mm
01:40 AM 30.9°F-0.6°C 29.9°F-1.2°C 96% Calm Calm -- 30.02 in1016.6 mb - 0.00 in0.0 mm 0.00 in0.0 mm
01:45 AM 30.9°F-0.6°C 29.9°F-1.2°C 96% Calm Calm -- 30.02 in1016.6 mb - 0.00 in0.0 mm 0.00 in0.0 mm
01:50 AM 30.8°F-0.7°C 29.8°F-1.2°C 96% Calm Calm -- 30.02 in1016.6 mb - 0.00 in0.0 mm 0.00 in0.0 mm
01:55 AM 30.8°F-0.7°C 29.8°F-1.2°C 96% Calm Calm -- 30.02 in1016.6 mb - 0.00 in0.0 mm 0.00 in0.0 mm
02:00 AM 30.7°F-0.7°C 29.7°F-1.3°C 96% Calm Calm -- 30.02 in1016.6 mb - 0.00 in0.0 mm 0.00 in0.0 mm
02:10 AM 30.6°F-0.8°C 29.6°F-1.3°C 96% Calm Calm -- 30.01 in1016.3 mb - 0.00 in0.0 mm 0.00 in0.0 mm
02:15 AM 30.5°F-0.8°C 29.5°F-1.4°C 96% Calm Calm -- 30.01 in1016.3 mb - 0.00 in0.0 mm 0.00 in0.0 mm
02:20 AM 30.5°F-0.8°C 29.5°F-1.4°C 96% Calm Calm -- 30.01 in1016.3 mb - 0.00 in0.0 mm 0.00 in0.0 mm
02:25 AM 30.5°F-0.8°C 29.5°F-1.4°C 96% Calm Calm -- 30.01 in1016.3 mb - 0.00 in0.0 mm 0.00 in0.0 mm
02:30 AM 30.6°F-0.8°C 29.6°F-1.3°C 96% Calm Calm -- 30.01 in1016.3 mb - 0.00 in0.0 mm 0.00 in0.0 mm
02:35 AM 30.5°F-0.8°C 29.5°F-1.4°C 96% Calm Calm -- 30.01 in1016.3 mb - 0.00 in0.0 mm 0.00 in0.0 mm
02:40 AM 30.5°F-0.8°C 29.5°F-1.4°C 96% Calm Calm -- 30.00 in1015.9 mb - 0.00 in0.0 mm 0.00 in0.0 mm
02:45 AM 30.5°F-0.8°C 29.5°F-1.4°C 96% Calm Calm -- 30.00 in1015.9 mb - 0.00 in0.0 mm 0.00 in0.0 mm
02:50 AM 30.5°F-0.8°C 29.5°F-1.4°C 96% Calm Calm -- 30.00 in1015.9 mb - 0.00 in0.0 mm 0.00 in0.0 mm
02:55 AM 30.6°F-0.8°C 29.6°F-1.3°C 96% Calm Calm -- 30.00 in1015.9 mb - 0.00 in0.0 mm 0.00 in0.0 mm
03:00 AM 30.6°F-0.8°C 29.6°F-1.3°C 96% Calm Calm -- 30.00 in1015.9 mb - 0.00 in0.0 mm 0.00 in0.0 mm
03:10 AM 30.6°F-0.8°C 29.6°F-1.3°C 96% Calm Calm -- 30.00 in1015.9 mb - 0.00 in0.0 mm 0.00 in0.0 mm
03:15 AM 30.5°F-0.8°C 29.5°F-1.4°C 96% Calm Calm -- 30.00 in1015.9 mb - 0.00 in0.0 mm 0.00 in0.0 mm
03:20 AM 30.5°F-0.8°C 29.5°F-1.4°C 96% 1.2 mph NNE1.9 kmh NNE 3.5 mph5.6 kmh 30.00 in1015.9 mb - 0.00 in0.0 mm 0.00 in0.0 mm
03:25 AM 30.4°F-0.9°C 29.4°F-1.4°C 96% Calm Calm 1.2 mph1.9 kmh 30.00 in1015.9 mb - 0.00 in0.0 mm 0.00 in0.0 mm
03:30 AM 30.3°F-0.9°C 29.3°F-1.5°C 96% Calm Calm -- 30.00 in1015.9 mb - 0.00 in0.0 mm 0.00 in0.0 mm
03:35 AM 30.3°F-0.9°C 29.3°F-1.5°C 96% Calm Calm -- 30.00 in1015.9 mb - 0.00 in0.0 mm 0.00 in0.0 mm
03:40 AM 30.3°F-0.9°C 29.3°F-1.5°C 96% Calm Calm -- 30.00 in1015.9 mb - 0.00 in0.0 mm 0.00 in0.0 mm
03:45 AM 30.3°F-0.9°C 29.3°F-1.5°C 96% Calm Calm -- 30.00 in1015.9 mb - 0.00 in0.0 mm 0.00 in0.0 mm
03:50 AM 30.3°F-0.9°C 29.6°F-1.3°C 97% Calm Calm -- 30.00 in1015.9 mb - 0.00 in0.0 mm 0.00 in0.0 mm
03:55 AM 30.4°F-0.9°C 29.7°F-1.3°C 97% Calm Calm -- 30.00 in1015.9 mb - 0.00 in0.0 mm 0.00 in0.0 mm
04:00 AM 30.5°F-0.8°C 29.8°F-1.2°C 97% Calm Calm -- 30.00 in1015.9 mb - 0.00 in0.0 mm 0.00 in0.0 mm
04:10 AM 30.5°F-0.8°C 29.8°F-1.2°C 97% Calm Calm -- 30.00 in1015.9 mb - 0.00 in0.0 mm 0.00 in0.0 mm
04:15 AM 30.6°F-0.8°C 29.9°F-1.2°C 97% Calm Calm -- 30.00 in1015.9 mb - 0.00 in0.0 mm 0.00 in0.0 mm
04:20 AM 30.6°F-0.8°C 29.8°F-1.2°C 97% Calm Calm -- 30.00 in1015.9 mb - 0.00 in0.0 mm 0.00 in0.0 mm
04:25 AM 30.5°F-0.8°C 29.8°F-1.2°C 97% Calm Calm -- 29.99 in1015.6 mb - 0.00 in0.0 mm 0.00 in0.0 mm
04:30 AM 30.5°F-0.8°C 29.7°F-1.3°C 97% Calm Calm -- 29.99 in1015.6 mb - 0.00 in0.0 mm 0.00 in0.0 mm
04:35 AM 30.3°F-0.9°C 29.6°F-1.3°C 97% Calm Calm -- 30.00 in1015.9 mb - 0.00 in0.0 mm 0.00 in0.0 mm
04:40 AM 30.3°F-0.9°C 29.6°F-1.3°C 97% Calm Calm -- 29.99 in1015.6 mb - 0.00 in0.0 mm 0.00 in0.0 mm
04:45 AM 30.2°F-1.0°C 29.2°F-1.6°C 96% Calm Calm -- 29.99 in1015.6 mb - 0.00 in0.0 mm 0.00 in0.0 mm
04:50 AM 30.2°F-1.0°C 29.2°F-1.6°C 96% 2.3 mph NW3.7 kmh NW 3.5 mph5.6 kmh 29.99 in1015.6 mb - 0.00 in0.0 mm 0.00 in0.0 mm
04:55 AM 30.2°F-1.0°C 29.2°F-1.6°C 96% 1.2 mph W1.9 kmh W 3.5 mph5.6 kmh 29.99 in1015.6 mb - 0.00 in0.0 mm 0.00 in0.0 mm
05:00 AM 30.1°F-1.1°C 29.1°F-1.6°C 96% 1.2 mph W1.9 kmh W 2.3 mph3.7 kmh 29.99 in1015.6 mb - 0.00 in0.0 mm 0.00 in0.0 mm
05:10 AM 30.0°F-1.1°C 29.0°F-1.7°C 96% 1.2 mph W1.9 kmh W 3.5 mph5.6 kmh 29.99 in1015.6 mb - 0.00 in0.0 mm 0.00 in0.0 mm
05:15 AM 29.8°F-1.2°C 28.8°F-1.8°C 96% 1.2 mph W1.9 kmh W 3.5 mph5.6 kmh 29.99 in1015.6 mb - 0.00 in0.0 mm 0.00 in0.0 mm
05:20 AM 29.8°F-1.2°C 28.8°F-1.8°C 96% 1.2 mph W1.9 kmh W 2.3 mph3.7 kmh 29.99 in1015.6 mb - 0.00 in0.0 mm 0.00 in0.0 mm
05:25 AM 29.8°F-1.2°C 28.8°F-1.8°C 96% Calm Calm -- 29.99 in1015.6 mb - 0.00 in0.0 mm 0.00 in0.0 mm
05:30 AM 29.8°F-1.2°C 28.8°F-1.8°C 96% Calm Calm -- 29.99 in1015.6 mb - 0.00 in0.0 mm 0.00 in0.0 mm
05:35 AM 29.7°F-1.3°C 28.7°F-1.8°C 96% Calm Calm -- 29.99 in1015.6 mb - 0.00 in0.0 mm 0.00 in0.0 mm
05:40 AM 29.6°F-1.3°C 28.6°F-1.9°C 96% Calm Calm -- 29.99 in1015.6 mb - 0.00 in0.0 mm 0.00 in0.0 mm
05:45 AM 29.5°F-1.4°C 28.5°F-1.9°C 96% Calm Calm -- 29.99 in1015.6 mb - 0.00 in0.0 mm 0.00 in0.0 mm
05:50 AM 29.5°F-1.4°C 28.5°F-1.9°C 96% Calm Calm -- 29.98 in1015.2 mb - 0.00 in0.0 mm 0.00 in0.0 mm
05:55 AM 29.5°F-1.4°C 28.5°F-1.9°C 96% Calm Calm -- 29.98 in1015.2 mb - 0.00 in0.0 mm 0.00 in0.0 mm
06:00 AM 29.5°F-1.4°C 28.5°F-1.9°C 96% Calm Calm 2.3 mph3.7 kmh 29.98 in1015.2 mb - 0.00 in0.0 mm 0.00 in0.0 mm
06:10 AM 29.6°F-1.3°C 28.6°F-1.9°C 96% Calm Calm -- 29.98 in1015.2 mb - 0.00 in0.0 mm 0.00 in0.0 mm
06:15 AM 29.6°F-1.3°C 28.6°F-1.9°C 96% Calm Calm -- 29.98 in1015.2 mb - 0.00 in0.0 mm 0.00 in0.0 mm
06:20 AM 29.7°F-1.3°C 28.7°F-1.8°C 96% Calm Calm -- 29.98 in1015.2 mb - 0.00 in0.0 mm 0.00 in0.0 mm
06:25 AM 29.7°F-1.3°C 28.7°F-1.8°C 96% Calm Calm -- 29.98 in1015.2 mb - 0.00 in0.0 mm 0.00 in0.0 mm
06:30 AM 29.8°F-1.2°C 28.8°F-1.8°C 96% Calm Calm -- 29.98 in1015.2 mb - 0.00 in0.0 mm 0.00 in0.0 mm
06:35 AM 29.8°F-1.2°C 28.8°F-1.8°C 96% Calm Calm -- 29.98 in1015.2 mb - 0.00 in0.0 mm 0.00 in0.0 mm
06:45 AM 29.9°F-1.2°C 28.9°F-1.7°C 96% Calm Calm -- 29.98 in1015.2 mb - 0.00 in0.0 mm 0.00 in0.0 mm
06:50 AM 30.0°F-1.1°C 29.0°F-1.7°C 96% Calm Calm -- 29.98 in1015.2 mb - 0.00 in0.0 mm 0.00 in0.0 mm
06:55 AM 30.0°F-1.1°C 29.0°F-1.7°C 96% Calm Calm -- 29.98 in1015.2 mb - 0.00 in0.0 mm 0.00 in0.0 mm
07:00 AM 29.9°F-1.2°C 28.9°F-1.7°C 96% Calm Calm -- 29.97 in1014.9 mb - 0.00 in0.0 mm 0.00 in0.0 mm
07:40 AM 30.5°F-0.8°C 29.8°F-1.2°C 97% Calm Calm -- 29.96 in1014.6 mb - 0.00 in0.0 mm 0.00 in0.0 mm
07:45 AM 30.6°F-0.8°C 29.9°F-1.2°C 97% Calm Calm -- 29.96 in1014.6 mb - 0.00 in0.0 mm 0.00 in0.0 mm
07:50 AM 30.7°F-0.7°C 30.0°F-1.1°C 97% Calm Calm -- 29.96 in1014.6 mb - 0.00 in0.0 mm 0.00 in0.0 mm
07:55 AM 30.8°F-0.7°C 30.1°F-1.1°C 97% Calm Calm -- 29.96 in1014.6 mb - 0.00 in0.0 mm 0.00 in0.0 mm
08:00 AM 30.9°F-0.6°C 30.2°F-1.0°C 97% Calm Calm -- 29.96 in1014.6 mb - 0.00 in0.0 mm 0.00 in0.0 mm
08:10 AM 31.1°F-0.5°C 30.3°F-0.9°C 97% 1.2 mph N1.9 kmh N 2.3 mph3.7 kmh 29.96 in1014.6 mb - 0.00 in0.0 mm 0.00 in0.0 mm
08:15 AM 31.2°F-0.4°C 30.4°F-0.9°C 97% Calm Calm -- 29.96 in1014.6 mb - 0.00 in0.0 mm 0.00 in0.0 mm
08:20 AM 31.2°F-0.4°C 30.5°F-0.8°C 97% Calm Calm -- 29.96 in1014.6 mb - 0.00 in0.0 mm 0.00 in0.0 mm
08:25 AM 31.3°F-0.4°C 30.5°F-0.8°C 97% Calm Calm 2.3 mph3.7 kmh 29.97 in1014.9 mb - 0.00 in0.0 mm 0.00 in0.0 mm
08:30 AM 31.3°F-0.4°C 30.5°F-0.8°C 97% 1.2 mph N1.9 kmh N 2.3 mph3.7 kmh 29.97 in1014.9 mb - 0.00 in0.0 mm 0.00 in0.0 mm
08:35 AM 31.3°F-0.4°C 30.5°F-0.8°C 97% Calm Calm -- 29.97 in1014.9 mb - 0.00 in0.0 mm 0.00 in0.0 mm
08:40 AM 31.4°F-0.3°C 30.6°F-0.8°C 97% Calm Calm -- 29.97 in1014.9 mb - 0.00 in0.0 mm 0.00 in0.0 mm
08:45 AM 31.4°F-0.3°C 30.6°F-0.8°C 97% Calm Calm -- 29.97 in1014.9 mb - 0.00 in0.0 mm 0.00 in0.0 mm
08:50 AM 31.5°F-0.3°C 30.7°F-0.7°C 97% Calm Calm 1.2 mph1.9 kmh 29.97 in1014.9 mb - 0.00 in0.0 mm 0.00 in0.0 mm
08:55 AM 31.6°F-0.2°C 30.9°F-0.6°C 97% 2.3 mph NE3.7 kmh NE 3.5 mph5.6 kmh 29.97 in1014.9 mb - 0.00 in0.0 mm 0.00 in0.0 mm
09:00 AM 31.8°F-0.1°C 31.0°F-0.6°C 97% 2.3 mph NE3.7 kmh NE 3.5 mph5.6 kmh 29.98 in1015.2 mb - 0.00 in0.0 mm 0.00 in0.0 mm
09:10 AM 32.0°F0.0°C 31.2°F-0.4°C 97% Calm Calm -- 29.98 in1015.2 mb - 0.00 in0.0 mm 0.00 in0.0 mm
09:15 AM 32.1°F0.1°C 31.3°F-0.4°C 97% 2.3 mph E3.7 kmh E 3.5 mph5.6 kmh 29.97 in1014.9 mb - 0.00 in0.0 mm 0.00 in0.0 mm
09:20 AM 32.2°F0.1°C 31.4°F-0.3°C 97% 2.3 mph E3.7 kmh E 3.5 mph5.6 kmh 29.97 in1014.9 mb - 0.00 in0.0 mm 0.00 in0.0 mm
09:25 AM 32.3°F0.2°C 31.5°F-0.3°C 97% 1.2 mph E1.9 kmh E 2.3 mph3.7 kmh 29.97 in1014.9 mb - 0.00 in0.0 mm 0.00 in0.0 mm
09:30 AM 32.3°F0.2°C 31.5°F-0.3°C 97% 1.2 mph E1.9 kmh E 3.5 mph5.6 kmh 29.97 in1014.9 mb - 0.00 in0.0 mm 0.00 in0.0 mm
09:35 AM 32.4°F0.2°C 31.6°F-0.2°C 97% 1.2 mph E1.9 kmh E 2.3 mph3.7 kmh 29.97 in1014.9 mb - 0.00 in0.0 mm 0.00 in0.0 mm
09:40 AM 32.4°F0.2°C 31.6°F-0.2°C 97% Calm Calm -- 29.97 in1014.9 mb - 0.00 in0.0 mm 0.00 in0.0 mm
09:45 AM 32.5°F0.3°C 31.7°F-0.2°C 97% Calm Calm 2.3 mph3.7 kmh 29.97 in1014.9 mb - 0.00 in0.0 mm 0.00 in0.0 mm
09:50 AM 32.5°F0.3°C 31.8°F-0.1°C 97% Calm Calm -- 29.98 in1015.2 mb - 0.00 in0.0 mm 0.00 in0.0 mm
09:55 AM 32.7°F0.4°C 31.9°F-0.1°C 97% 1.2 mph ESE1.9 kmh ESE 3.5 mph5.6 kmh 29.98 in1015.2 mb - 0.00 in0.0 mm 0.00 in0.0 mm
10:00 AM 32.9°F0.5°C 32.1°F0.1°C 97% Calm Calm -- 29.98 in1015.2 mb - 0.00 in0.0 mm 0.00 in0.0 mm
10:10 AM 33.3°F0.7°C 32.5°F0.3°C 97% Calm Calm -- 29.98 in1015.2 mb - 0.00 in0.0 mm 0.00 in0.0 mm
10:15 AM 33.5°F0.8°C 32.8°F0.4°C 97% Calm Calm -- 29.98 in1015.2 mb - 0.00 in0.0 mm 0.00 in0.0 mm
10:20 AM 33.8°F1.0°C 33.1°F0.6°C 97% Calm Calm 2.3 mph3.7 kmh 29.98 in1015.2 mb - 0.00 in0.0 mm 0.00 in0.0 mm
10:25 AM 34.1°F1.2°C 33.3°F0.7°C 97% Calm Calm -- 29.97 in1014.9 mb - 0.00 in0.0 mm 0.00 in0.0 mm
10:30 AM 34.3°F1.3°C 33.5°F0.8°C 97% Calm Calm -- 29.97 in1014.9 mb - 0.00 in0.0 mm 0.00 in0.0 mm
10:35 AM 34.5°F1.4°C 33.7°F0.9°C 97% Calm Calm -- 29.97 in1014.9 mb - 0.00 in0.0 mm 0.00 in0.0 mm
10:40 AM 34.8°F1.6°C 34.0°F1.1°C 97% Calm Calm -- 29.96 in1014.6 mb - 0.00 in0.0 mm 0.00 in0.0 mm
10:45 AM 35.1°F1.7°C 34.4°F1.3°C 97% Calm Calm -- 29.96 in1014.6 mb - 0.00 in0.0 mm 0.00 in0.0 mm
10:50 AM 35.4°F1.9°C 34.6°F1.4°C 97% Calm Calm -- 29.96 in1014.6 mb - 0.00 in0.0 mm 0.00 in0.0 mm
10:55 AM 35.6°F2.0°C 34.9°F1.6°C 97% Calm Calm -- 29.96 in1014.6 mb - 0.00 in0.0 mm 0.00 in0.0 mm
11:00 AM 35.9°F2.2°C 35.1°F1.7°C 97% Calm Calm -- 29.96 in1014.6 mb - 0.00 in0.0 mm 0.00 in0.0 mm
11:10 AM 36.8°F2.7°C 36.0°F2.2°C 97% Calm Calm -- 29.95 in1014.2 mb - 0.00 in0.0 mm 0.00 in0.0 mm
11:15 AM 37.2°F2.9°C 36.4°F2.4°C 97% Calm Calm 2.3 mph3.7 kmh 29.95 in1014.2 mb - 0.00 in0.0 mm 0.00 in0.0 mm
11:20 AM 37.7°F3.2°C 37.2°F2.9°C 98% Calm Calm 1.2 mph1.9 kmh 29.95 in1014.2 mb - 0.00 in0.0 mm 0.00 in0.0 mm
11:25 AM 38.2°F3.4°C 37.7°F3.2°C 98% 1.2 mph WSW1.9 kmh WSW 3.5 mph5.6 kmh 29.94 in1013.9 mb - 0.00 in0.0 mm 0.00 in0.0 mm
11:30 AM 38.5°F3.6°C 37.8°F3.2°C 97% 1.2 mph SSW1.9 kmh SSW 3.5 mph5.6 kmh 29.94 in1013.9 mb - 0.00 in0.0 mm 0.00 in0.0 mm
11:35 AM 39.0°F3.9°C 38.4°F3.6°C 98% Calm Calm -- 29.93 in1013.5 mb - 0.00 in0.0 mm 0.00 in0.0 mm
11:40 AM 39.3°F4.1°C 38.8°F3.8°C 98% 2.3 mph SW3.7 kmh SW 4.6 mph7.4 kmh 29.93 in1013.5 mb - 0.00 in0.0 mm 0.00 in0.0 mm
11:45 AM 39.7°F4.3°C 39.0°F3.9°C 97% 3.5 mph SW5.6 kmh SW 8.1 mph13.0 kmh 29.93 in1013.5 mb - 0.00 in0.0 mm 0.00 in0.0 mm
11:50 AM 40.1°F4.5°C 39.3°F4.1°C 97% 3.5 mph SSW5.6 kmh SSW 6.9 mph11.1 kmh 29.93 in1013.5 mb - 0.00 in0.0 mm 0.00 in0.0 mm
11:55 AM 40.9°F4.9°C 39.1°F3.9°C 93% 5.8 mph SW9.3 kmh SW 8.1 mph13.0 kmh 29.92 in1013.2 mb - 0.00 in0.0 mm 0.00 in0.0 mm
12:00 PM 42.2°F5.7°C 39.5°F4.2°C 90% 3.5 mph SSW5.6 kmh SSW 5.8 mph9.3 kmh 29.92 in1013.2 mb - 0.00 in0.0 mm 0.00 in0.0 mm
12:10 PM 42.1°F5.6°C 38.2°F3.4°C 86% 6.9 mph SW11.1 kmh SW 11.5 mph18.5 kmh 29.91 in1012.9 mb - 0.00 in0.0 mm 0.00 in0.0 mm
12:15 PM 42.0°F5.6°C 38.2°F3.4°C 86% 6.9 mph SW11.1 kmh SW 10.4 mph16.7 kmh 29.91 in1012.9 mb - 0.00 in0.0 mm 0.00 in0.0 mm
12:20 PM 42.6°F5.9°C 38.7°F3.7°C 86% 5.8 mph SW9.3 kmh SW 10.4 mph16.7 kmh 29.91 in1012.9 mb - 0.00 in0.0 mm 0.00 in0.0 mm
12:25 PM 42.7°F5.9°C 38.5°F3.6°C 85% 3.5 mph SW5.6 kmh SW 8.1 mph13.0 kmh 29.91 in1012.9 mb - 0.00 in0.0 mm 0.00 in0.0 mm
12:30 PM 42.5°F5.8°C 38.3°F3.5°C 85% 3.5 mph SW5.6 kmh SW 10.4 mph16.7 kmh 29.91 in1012.9 mb - 0.00 in0.0 mm 0.00 in0.0 mm
12:35 PM 42.4°F5.8°C 38.2°F3.4°C 85% 4.6 mph SSW7.4 kmh SSW 9.2 mph14.8 kmh 29.91 in1012.9 mb - 0.00 in0.0 mm 0.00 in0.0 mm
12:40 PM 42.4°F5.8°C 38.5°F3.6°C 86% 4.6 mph SW7.4 kmh SW 5.8 mph9.3 kmh 29.91 in1012.9 mb - 0.00 in0.0 mm 0.00 in0.0 mm
12:45 PM 42.8°F6.0°C 38.9°F3.8°C 86% 4.6 mph SW7.4 kmh SW 8.1 mph13.0 kmh 29.91 in1012.9 mb - 0.00 in0.0 mm 0.00 in0.0 mm
12:50 PM 43.3°F6.3°C 38.8°F3.8°C 84% 8.1 mph SW13.0 kmh SW 12.7 mph20.4 kmh 29.91 in1012.9 mb - 0.00 in0.0 mm 0.00 in0.0 mm
12:55 PM 43.3°F6.3°C 38.5°F3.6°C 83% 6.9 mph SW11.1 kmh SW 11.5 mph18.5 kmh 29.90 in1012.5 mb - 0.00 in0.0 mm 0.00 in0.0 mm
01:00 PM 43.3°F6.3°C 38.5°F3.6°C 83% 5.8 mph S9.3 kmh S 9.2 mph14.8 kmh 29.90 in1012.5 mb - 0.00 in0.0 mm 0.00 in0.0 mm
01:10 PM 44.4°F6.9°C 39.2°F4.0°C 82% 5.8 mph S9.3 kmh S 9.2 mph14.8 kmh 29.90 in1012.5 mb - 0.00 in0.0 mm 0.00 in0.0 mm
01:15 PM 44.3°F6.8°C 39.2°F4.0°C 82% 4.6 mph S7.4 kmh S 8.1 mph13.0 kmh 29.90 in1012.5 mb - 0.00 in0.0 mm 0.00 in0.0 mm
01:20 PM 44.0°F6.7°C 38.5°F3.6°C 81% 5.8 mph SSW9.3 kmh SSW 6.9 mph11.1 kmh 29.90 in1012.5 mb - 0.00 in0.0 mm 0.00 in0.0 mm
01:25 PM 44.2°F6.8°C 39.0°F3.9°C 82% 4.6 mph S7.4 kmh S 8.1 mph13.0 kmh 29.90 in1012.5 mb - 0.00 in0.0 mm 0.00 in0.0 mm
01:30 PM 44.0°F6.7°C 38.9°F3.8°C 82% 4.6 mph S7.4 kmh S 8.1 mph13.0 kmh 29.90 in1012.5 mb - 0.00 in0.0 mm 0.00 in0.0 mm
01:35 PM 44.2°F6.8°C 38.7°F3.7°C 81% 3.5 mph S5.6 kmh S 5.8 mph9.3 kmh 29.90 in1012.5 mb - 0.00 in0.0 mm 0.00 in0.0 mm
01:40 PM 44.2°F6.8°C 38.7°F3.7°C 81% 4.6 mph S7.4 kmh S 6.9 mph11.1 kmh 29.90 in1012.5 mb - 0.00 in0.0 mm 0.00 in0.0 mm
01:45 PM 44.3°F6.8°C 38.8°F3.8°C 81% 4.6 mph SW7.4 kmh SW 5.8 mph9.3 kmh 29.89 in1012.2 mb - 0.00 in0.0 mm 0.00 in0.0 mm
01:50 PM 44.2°F6.8°C 38.7°F3.7°C 81% 4.6 mph SW7.4 kmh SW 5.8 mph9.3 kmh 29.89 in1012.2 mb - 0.00 in0.0 mm 0.00 in0.0 mm
01:55 PM 44.1°F6.7°C 38.7°F3.7°C 81% 3.5 mph SSW5.6 kmh SSW 5.8 mph9.3 kmh 29.89 in1012.2 mb - 0.00 in0.0 mm 0.00 in0.0 mm
02:00 PM 44.4°F6.9°C 39.0°F3.9°C 81% 2.3 mph S3.7 kmh S 3.5 mph5.6 kmh 29.89 in1012.2 mb - 0.00 in0.0 mm 0.00 in0.0 mm
02:10 PM 44.7°F7.1°C 38.9°F3.8°C 80% 2.3 mph SSW3.7 kmh SSW 5.8 mph9.3 kmh 29.90 in1012.5 mb - 0.00 in0.0 mm 0.00 in0.0 mm
02:15 PM 44.5°F6.9°C 38.7°F3.7°C 80% 3.5 mph SSW5.6 kmh SSW 4.6 mph7.4 kmh 29.90 in1012.5 mb - 0.00 in0.0 mm 0.00 in0.0 mm
02:20 PM 44.7°F7.1°C 38.9°F3.8°C 80% 2.3 mph SW3.7 kmh SW 3.5 mph5.6 kmh 29.90 in1012.5 mb - 0.00 in0.0 mm 0.00 in0.0 mm
02:25 PM 44.9°F7.2°C 38.8°F3.8°C 79% 2.3 mph SW3.7 kmh SW 5.8 mph9.3 kmh 29.90 in1012.5 mb - 0.00 in0.0 mm 0.00 in0.0 mm
02:30 PM 45.2°F7.3°C 39.1°F3.9°C 79% 1.2 mph SSW1.9 kmh SSW 2.3 mph3.7 kmh 29.90 in1012.5 mb - 0.00 in0.0 mm 0.00 in0.0 mm
02:35 PM 45.7°F7.6°C 38.9°F3.8°C 77% 1.2 mph WSW1.9 kmh WSW 2.3 mph3.7 kmh 29.91 in1012.9 mb - 0.00 in0.0 mm 0.00 in0.0 mm
02:40 PM 45.6°F7.6°C 38.8°F3.8°C 77% 1.2 mph WSW1.9 kmh WSW 3.5 mph5.6 kmh 29.91 in1012.9 mb - 0.00 in0.0 mm 0.00 in0.0 mm
02:45 PM 45.4°F7.4°C 38.6°F3.7°C 77% 2.3 mph SW3.7 kmh SW 3.5 mph5.6 kmh 29.91 in1012.9 mb - 0.00 in0.0 mm 0.00 in0.0 mm
02:50 PM 45.0°F7.2°C 38.6°F3.7°C 78% 2.3 mph SSW3.7 kmh SSW 3.5 mph5.6 kmh 29.91 in1012.9 mb - 0.00 in0.0 mm 0.00 in0.0 mm
02:55 PM 44.5°F6.9°C 38.1°F3.4°C 78% Calm Calm -- 29.92 in1013.2 mb - 0.00 in0.0 mm 0.00 in0.0 mm
03:00 PM 44.3°F6.8°C 38.2°F3.4°C 79% Calm Calm -- 29.92 in1013.2 mb - 0.00 in0.0 mm 0.00 in0.0 mm
03:10 PM 44.0°F6.7°C 38.5°F3.6°C 81% 1.2 mph WSW1.9 kmh WSW 1.2 mph1.9 kmh 29.92 in1013.2 mb - 0.00 in0.0 mm 0.00 in0.0 mm
03:15 PM 43.9°F6.6°C 38.4°F3.6°C 81% Calm Calm 1.2 mph1.9 kmh 29.93 in1013.5 mb - 0.00 in0.0 mm 0.00 in0.0 mm
03:20 PM 43.8°F6.6°C 38.6°F3.7°C 82% 1.2 mph NW1.9 kmh NW 2.3 mph3.7 kmh 29.94 in1013.9 mb - 0.00 in0.0 mm 0.00 in0.0 mm
03:25 PM 43.7°F6.5°C 39.2°F4.0°C 84% 1.2 mph NW1.9 kmh NW 2.3 mph3.7 kmh 29.94 in1013.9 mb - 0.01 in0.3 mm 0.01 in0.3 mm
03:30 PM 43.5°F6.4°C 39.3°F4.1°C 85% Calm Calm 2.3 mph3.7 kmh 29.94 in1013.9 mb - 0.00 in0.0 mm 0.01 in0.3 mm
03:35 PM 43.4°F6.3°C 39.5°F4.2°C 86% Calm Calm -- 29.94 in1013.9 mb - 0.01 in0.3 mm 0.02 in0.5 mm
03:40 PM 43.4°F6.3°C 40.0°F4.4°C 88% 1.2 mph NNW1.9 kmh NNW -- 29.94 in1013.9 mb - 0.00 in0.0 mm 0.02 in0.5 mm
03:45 PM 43.3°F6.3°C 39.9°F4.4°C 88% 3.5 mph NE5.6 kmh NE 5.8 mph9.3 kmh 29.94 in1013.9 mb - 0.00 in0.0 mm 0.02 in0.5 mm
03:50 PM 43.1°F6.2°C 40.1°F4.5°C 89% Calm Calm -- 29.94 in1013.9 mb - 0.00 in0.0 mm 0.02 in0.5 mm
03:55 PM 43.1°F6.2°C 40.1°F4.5°C 89% Calm Calm -- 29.94 in1013.9 mb - 0.00 in0.0 mm 0.02 in0.5 mm
04:00 PM 43.0°F6.1°C 40.3°F4.6°C 90% Calm Calm -- 29.94 in1013.9 mb - 0.00 in0.0 mm 0.02 in0.5 mm
04:10 PM 42.7°F5.9°C 40.0°F4.4°C 90% 3.5 mph NE5.6 kmh NE 4.6 mph7.4 kmh 29.94 in1013.9 mb - 0.00 in0.0 mm 0.02 in0.5 mm
04:15 PM 42.4°F5.8°C 39.7°F4.3°C 90% 5.8 mph NE9.3 kmh NE 9.2 mph14.8 kmh 29.95 in1014.2 mb - 0.00 in0.0 mm 0.02 in0.5 mm
04:20 PM 42.0°F5.6°C 39.3°F4.1°C 90% 4.6 mph NE7.4 kmh NE 8.1 mph13.0 kmh 29.95 in1014.2 mb - 0.00 in0.0 mm 0.02 in0.5 mm
04:25 PM 41.5°F5.3°C 38.8°F3.8°C 90% 2.3 mph NNE3.7 kmh NNE 4.6 mph7.4 kmh 29.95 in1014.2 mb - 0.00 in0.0 mm 0.02 in0.5 mm
04:30 PM 41.2°F5.1°C 38.5°F3.6°C 90% Calm Calm 3.5 mph5.6 kmh 29.95 in1014.2 mb - 0.00 in0.0 mm 0.02 in0.5 mm
04:35 PM 41.0°F5.0°C 38.3°F3.5°C 90% Calm Calm -- 29.95 in1014.2 mb - 0.00 in0.0 mm 0.02 in0.5 mm
04:40 PM 40.9°F4.9°C 38.2°F3.4°C 90% Calm Calm -- 29.95 in1014.2 mb - 0.00 in0.0 mm 0.02 in0.5 mm
04:45 PM 40.7°F4.8°C 38.3°F3.5°C 91% Calm Calm -- 29.95 in1014.2 mb - 0.00 in0.0 mm 0.02 in0.5 mm
04:50 PM 40.6°F4.8°C 38.2°F3.4°C 91% Calm Calm -- 29.95 in1014.2 mb - 0.00 in0.0 mm 0.02 in0.5 mm
04:55 PM 40.5°F4.7°C 38.1°F3.4°C 91% Calm Calm -- 29.96 in1014.6 mb - 0.00 in0.0 mm 0.02 in0.5 mm
05:00 PM 40.4°F4.7°C 38.0°F3.3°C 91% Calm Calm -- 29.95 in1014.2 mb - 0.00 in0.0 mm 0.02 in0.5 mm
05:10 PM 40.1°F4.5°C 37.7°F3.2°C 91% Calm Calm -- 29.95 in1014.2 mb - 0.00 in0.0 mm 0.02 in0.5 mm
05:15 PM 39.9°F4.4°C 37.5°F3.1°C 91% Calm Calm -- 29.95 in1014.2 mb - 0.00 in0.0 mm 0.02 in0.5 mm
05:20 PM 39.8°F4.3°C 37.4°F3.0°C 91% Calm Calm -- 29.96 in1014.6 mb - 0.00 in0.0 mm 0.02 in0.5 mm
05:25 PM 39.6°F4.2°C 37.4°F3.0°C 92% Calm Calm -- 29.96 in1014.6 mb - 0.00 in0.0 mm 0.02 in0.5 mm
05:30 PM 39.4°F4.1°C 37.2°F2.9°C 92% Calm Calm -- 29.96 in1014.6 mb - 0.00 in0.0 mm 0.02 in0.5 mm
05:35 PM 39.1°F3.9°C 37.0°F2.8°C 92% Calm Calm -- 29.96 in1014.6 mb - 0.00 in0.0 mm 0.02 in0.5 mm
05:40 PM 38.9°F3.8°C 36.8°F2.7°C 92% Calm Calm 3.5 mph5.6 kmh 29.96 in1014.6 mb - 0.00 in0.0 mm 0.02 in0.5 mm
05:45 PM 38.7°F3.7°C 36.6°F2.6°C 92% 1.2 mph NE1.9 kmh NE 2.3 mph3.7 kmh 29.97 in1014.9 mb - 0.00 in0.0 mm 0.02 in0.5 mm
05:50 PM 38.6°F3.7°C 36.4°F2.4°C 92% 1.2 mph NE1.9 kmh NE 2.3 mph3.7 kmh 29.97 in1014.9 mb - 0.00 in0.0 mm 0.02 in0.5 mm
05:55 PM 38.4°F3.6°C 36.3°F2.4°C 92% Calm Calm -- 29.97 in1014.9 mb - 0.00 in0.0 mm 0.02 in0.5 mm
06:00 PM 38.2°F3.4°C 36.1°F2.3°C 92% Calm Calm -- 29.97 in1014.9 mb - 0.00 in0.0 mm 0.02 in0.5 mm
06:10 PM 37.8°F3.2°C 35.7°F2.1°C 92% Calm Calm -- 29.97 in1014.9 mb - 0.00 in0.0 mm 0.02 in0.5 mm
06:15 PM 37.7°F3.2°C 35.6°F2.0°C 92% Calm Calm -- 29.98 in1015.2 mb - 0.00 in0.0 mm 0.02 in0.5 mm
06:20 PM 37.4°F3.0°C 35.6°F2.0°C 93% Calm Calm -- 29.98 in1015.2 mb - 0.00 in0.0 mm 0.02 in0.5 mm
06:25 PM 37.2°F2.9°C 35.4°F1.9°C 93% Calm Calm -- 29.98 in1015.2 mb - 0.00 in0.0 mm 0.02 in0.5 mm
06:30 PM 37.0°F2.8°C 35.2°F1.8°C 93% Calm Calm -- 29.98 in1015.2 mb - 0.00 in0.0 mm 0.02 in0.5 mm
06:35 PM 36.8°F2.7°C 34.9°F1.6°C 93% Calm Calm -- 29.99 in1015.6 mb - 0.00 in0.0 mm 0.02 in0.5 mm
06:40 PM 36.5°F2.5°C 34.7°F1.5°C 93% Calm Calm -- 29.99 in1015.6 mb - 0.00 in0.0 mm 0.02 in0.5 mm
06:45 PM 36.4°F2.4°C 34.6°F1.4°C 93% Calm Calm -- 29.99 in1015.6 mb - 0.00 in0.0 mm 0.02 in0.5 mm
06:50 PM 36.2°F2.3°C 34.4°F1.3°C 93% Calm Calm -- 30.00 in1015.9 mb - 0.00 in0.0 mm 0.02 in0.5 mm
06:55 PM 36.0°F2.2°C 34.4°F1.3°C 94% Calm Calm -- 30.00 in1015.9 mb - 0.00 in0.0 mm 0.02 in0.5 mm
07:00 PM 35.9°F2.2°C 34.3°F1.3°C 94% Calm Calm -- 30.00 in1015.9 mb - 0.00 in0.0 mm 0.02 in0.5 mm
07:10 PM 35.7°F2.1°C 34.1°F1.2°C 94% Calm Calm -- 30.00 in1015.9 mb - 0.00 in0.0 mm 0.02 in0.5 mm
07:15 PM 35.7°F2.1°C 34.1°F1.2°C 94% Calm Calm -- 30.00 in1015.9 mb - 0.00 in0.0 mm 0.02 in0.5 mm
07:20 PM 35.7°F2.1°C 34.4°F1.3°C 95% Calm Calm -- 30.00 in1015.9 mb - 0.00 in0.0 mm 0.02 in0.5 mm
07:25 PM 35.6°F2.0°C 34.3°F1.3°C 95% Calm Calm -- 30.01 in1016.3 mb - 0.00 in0.0 mm 0.02 in0.5 mm
07:30 PM 35.5°F1.9°C 34.2°F1.2°C 95% 1.2 mph NW1.9 kmh NW 2.3 mph3.7 kmh 30.01 in1016.3 mb - 0.00 in0.0 mm 0.02 in0.5 mm
07:35 PM 35.4°F1.9°C 34.1°F1.2°C 95% 1.2 mph NW1.9 kmh NW 3.5 mph5.6 kmh 30.01 in1016.3 mb - 0.00 in0.0 mm 0.02 in0.5 mm
07:40 PM 35.3°F1.8°C 34.0°F1.1°C 95% Calm Calm -- 30.01 in1016.3 mb - 0.00 in0.0 mm 0.02 in0.5 mm
07:45 PM 35.1°F1.7°C 33.8°F1.0°C 95% 1.2 mph W1.9 kmh W 2.3 mph3.7 kmh 30.01 in1016.3 mb - 0.00 in0.0 mm 0.02 in0.5 mm
07:50 PM 35.0°F1.7°C 33.7°F0.9°C 95% 1.2 mph W1.9 kmh W 1.2 mph1.9 kmh 30.01 in1016.3 mb - 0.00 in0.0 mm 0.02 in0.5 mm
07:55 PM 34.8°F1.6°C 33.5°F0.8°C 95% Calm Calm -- 30.01 in1016.3 mb - 0.00 in0.0 mm 0.02 in0.5 mm
08:00 PM 34.8°F1.6°C 33.5°F0.8°C 95% Calm Calm 2.3 mph3.7 kmh 30.02 in1016.6 mb - 0.00 in0.0 mm 0.02 in0.5 mm
08:10 PM 34.4°F1.3°C 33.1°F0.6°C 95% 1.2 mph W1.9 kmh W 2.3 mph3.7 kmh 30.02 in1016.6 mb - 0.00 in0.0 mm 0.02 in0.5 mm
08:15 PM 34.2°F1.2°C 32.9°F0.5°C 95% Calm Calm 2.3 mph3.7 kmh 30.02 in1016.6 mb - 0.00 in0.0 mm 0.02 in0.5 mm
08:20 PM 33.9°F1.1°C 32.6°F0.3°C 95% 1.2 mph W1.9 kmh W 2.3 mph3.7 kmh 30.02 in1016.6 mb - 0.00 in0.0 mm 0.02 in0.5 mm
08:25 PM 33.7°F0.9°C 32.4°F0.2°C 95% 1.2 mph W1.9 kmh W 1.2 mph1.9 kmh 30.02 in1016.6 mb - 0.00 in0.0 mm 0.02 in0.5 mm
08:30 PM 33.5°F0.8°C 32.3°F0.2°C 95% Calm Calm -- 30.02 in1016.6 mb - 0.00 in0.0 mm 0.02 in0.5 mm
08:35 PM 33.4°F0.8°C 32.1°F0.1°C 95% Calm Calm -- 30.02 in1016.6 mb - 0.00 in0.0 mm 0.02 in0.5 mm
08:40 PM 33.2°F0.7°C 31.9°F-0.1°C 95% Calm Calm -- 30.02 in1016.6 mb - 0.00 in0.0 mm 0.02 in0.5 mm
08:45 PM 33.1°F0.6°C 32.0°F0.0°C 96% Calm Calm -- 30.02 in1016.6 mb - 0.00 in0.0 mm 0.02 in0.5 mm
08:50 PM 33.0°F0.6°C 31.7°F-0.2°C 95% Calm Calm -- 30.02 in1016.6 mb - 0.00 in0.0 mm 0.02 in0.5 mm
08:55 PM 32.8°F0.4°C 31.5°F-0.3°C 95% Calm Calm 1.2 mph1.9 kmh 30.02 in1016.6 mb - 0.00 in0.0 mm 0.02 in0.5 mm
09:00 PM 32.7°F0.4°C 31.7°F-0.2°C 96% Calm Calm 2.3 mph3.7 kmh 30.02 in1016.6 mb - 0.00 in0.0 mm 0.02 in0.5 mm
09:10 PM 32.7°F0.4°C 31.7°F-0.2°C 96% 1.2 mph W1.9 kmh W 2.3 mph3.7 kmh 30.02 in1016.6 mb - 0.00 in0.0 mm 0.02 in0.5 mm
09:15 PM 32.8°F0.4°C 31.8°F-0.1°C 96% 1.2 mph W1.9 kmh W 2.3 mph3.7 kmh 30.02 in1016.6 mb - 0.00 in0.0 mm 0.02 in0.5 mm
09:20 PM 32.8°F0.4°C 31.8°F-0.1°C 96% Calm Calm 1.2 mph1.9 kmh 30.02 in1016.6 mb - 0.00 in0.0 mm 0.02 in0.5 mm
09:25 PM 32.8°F0.4°C 31.8°F-0.1°C 96% 1.2 mph WNW1.9 kmh WNW 3.5 mph5.6 kmh 30.03 in1016.9 mb - 0.00 in0.0 mm 0.02 in0.5 mm
09:30 PM 32.8°F0.4°C 31.8°F-0.1°C 96% 1.2 mph NW1.9 kmh NW 1.2 mph1.9 kmh 30.03 in1016.9 mb - 0.00 in0.0 mm 0.02 in0.5 mm
09:35 PM 33.0°F0.6°C 31.9°F-0.1°C 96% 2.3 mph NW3.7 kmh NW 3.5 mph5.6 kmh 30.03 in1016.9 mb - 0.00 in0.0 mm 0.02 in0.5 mm
09:40 PM 33.1°F0.6°C 32.1°F0.1°C 96% Calm Calm 1.2 mph1.9 kmh 30.03 in1016.9 mb - 0.00 in0.0 mm 0.02 in0.5 mm
09:45 PM 33.1°F0.6°C 32.0°F0.0°C 96% Calm Calm -- 30.03 in1016.9 mb - 0.00 in0.0 mm 0.02 in0.5 mm
09:50 PM 33.0°F0.6°C 32.0°F0.0°C 96% Calm Calm -- 30.03 in1016.9 mb - 0.00 in0.0 mm 0.02 in0.5 mm
09:55 PM 33.0°F0.6°C 32.0°F0.0°C 96% Calm Calm -- 30.04 in1017.3 mb - 0.00 in0.0 mm 0.02 in0.5 mm
10:00 PM 32.9°F0.5°C 31.9°F-0.1°C 96% Calm Calm 1.2 mph1.9 kmh 30.04 in1017.3 mb - 0.00 in0.0 mm 0.02 in0.5 mm
10:10 PM 32.8°F0.4°C 31.8°F-0.1°C 96% 1.2 mph NW1.9 kmh NW 3.5 mph5.6 kmh 30.03 in1016.9 mb - 0.00 in0.0 mm 0.02 in0.5 mm
10:15 PM 32.6°F0.3°C 31.6°F-0.2°C 96% 2.3 mph W3.7 kmh W 3.5 mph5.6 kmh 30.04 in1017.3 mb - 0.00 in0.0 mm 0.02 in0.5 mm
10:20 PM 32.6°F0.3°C 31.6°F-0.2°C 96% Calm Calm -- 30.04 in1017.3 mb - 0.00 in0.0 mm 0.02 in0.5 mm
10:25 PM 32.5°F0.3°C 31.5°F-0.3°C 96% Calm Calm -- 30.04 in1017.3 mb - 0.00 in0.0 mm 0.02 in0.5 mm
10:30 PM 32.4°F0.2°C 31.4°F-0.3°C 96% 1.2 mph W1.9 kmh W 2.3 mph3.7 kmh 30.04 in1017.3 mb - 0.00 in0.0 mm 0.02 in0.5 mm
10:35 PM 32.3°F0.2°C 31.3°F-0.4°C 96% 1.2 mph W1.9 kmh W 2.3 mph3.7 kmh 30.04 in1017.3 mb - 0.00 in0.0 mm 0.02 in0.5 mm
10:40 PM 32.2°F0.1°C 31.1°F-0.5°C 96% Calm Calm 1.2 mph1.9 kmh 30.04 in1017.3 mb - 0.00 in0.0 mm 0.02 in0.5 mm
10:45 PM 32.0°F0.0°C 31.0°F-0.6°C 96% Calm Calm 1.2 mph1.9 kmh 30.04 in1017.3 mb - 0.00 in0.0 mm 0.02 in0.5 mm
10:50 PM 31.7°F-0.2°C 30.7°F-0.7°C 96% 1.2 mph W1.9 kmh W 2.3 mph3.7 kmh 30.04 in1017.3 mb - 0.00 in0.0 mm 0.02 in0.5 mm
10:55 PM 31.6°F-0.2°C 30.6°F-0.8°C 96% Calm Calm -- 30.04 in1017.3 mb - 0.00 in0.0 mm 0.02 in0.5 mm
11:00 PM 31.4°F-0.3°C 30.4°F-0.9°C 96% Calm Calm -- 30.04 in1017.3 mb - 0.00 in0.0 mm 0.02 in0.5 mm
11:10 PM 31.2°F-0.4°C 30.2°F-1.0°C 96% Calm Calm -- 30.04 in1017.3 mb - 0.00 in0.0 mm 0.02 in0.5 mm
11:15 PM 31.2°F-0.4°C 30.2°F-1.0°C 96% Calm Calm -- 30.04 in1017.3 mb - 0.00 in0.0 mm 0.02 in0.5 mm
11:20 PM 31.0°F-0.6°C 30.0°F-1.1°C 96% Calm Calm -- 30.04 in1017.3 mb - 0.00 in0.0 mm 0.02 in0.5 mm
11:25 PM 30.9°F-0.6°C 29.8°F-1.2°C 96% 1.2 mph W1.9 kmh W 2.3 mph3.7 kmh 30.04 in1017.3 mb - 0.00 in0.0 mm 0.02 in0.5 mm
11:30 PM 30.7°F-0.7°C 29.7°F-1.3°C 96% 1.2 mph W1.9 kmh W 2.3 mph3.7 kmh 30.04 in1017.3 mb - 0.00 in0.0 mm 0.02 in0.5 mm
11:35 PM 30.6°F-0.8°C 29.6°F-1.3°C 96% Calm Calm -- 30.04 in1017.3 mb - 0.00 in0.0 mm 0.02 in0.5 mm
11:40 PM 30.5°F-0.8°C 29.5°F-1.4°C 96% Calm Calm 1.2 mph1.9 kmh 30.04 in1017.3 mb - 0.00 in0.0 mm 0.02 in0.5 mm
11:45 PM 30.4°F-0.9°C 29.4°F-1.4°C 96% Calm Calm 1.2 mph1.9 kmh 30.04 in1017.3 mb - 0.00 in0.0 mm 0.02 in0.5 mm
11:50 PM 30.4°F-0.9°C 29.4°F-1.4°C 96% 1.2 mph W1.9 kmh W 2.3 mph3.7 kmh 30.05 in1017.6 mb - 0.00 in0.0 mm 0.02 in0.5 mm
11:55 PM 30.4°F-0.9°C 29.4°F-1.4°C 96% 1.2 mph W1.9 kmh W 2.3 mph3.7 kmh 30.04 in1017.3 mb - 0.00 in0.0 mm 0.02 in0.5 mm